Terminal Aerodrome Forecast
Issued by NWS

Home | Current Version | Previous Version | Text Only | Print | Product List | Glossary On
Versions: 1 2 3 4 5 6 7 8 9 10 11 12 13 14 15 16 17 18 19 20
634
FTUS41 KCLE 181737
TAFFDY
TAF
KFDY 181737Z 1818/1918 25010KT 5SM BR OVC008
      TEMPO 1818/1820 P6SM NSW OVC010
     FM182000 23010KT P6SM OVC012
     FM190200 23007KT P6SM OVC009
     FM190700 23007KT 5SM BR OVC009
     FM191300 22005KT P6SM OVC010
     FM191500 21005KT P6SM SCT012=

USA.gov is the U.S. government's official web portal to all federal, state and local government web resources and services.